createdAt,value
2023-04-14T00:00:08.671Z,602.24
2023-04-14T00:00:18.684Z,602.19
2023-04-14T00:00:28.653Z,602.21
2023-04-14T00:00:38.667Z,602.27
2023-04-14T00:00:48.666Z,602.23
2023-04-14T00:00:58.658Z,602.23
2023-04-14T00:01:08.659Z,602.22
2023-04-14T00:01:18.658Z,602.24
2023-04-14T00:01:28.660Z,602.21
2023-04-14T00:01:48.670Z,602.25
2023-04-14T00:01:58.741Z,602.19
2023-04-14T00:02:08.697Z,602.27
2023-04-14T00:02:18.703Z,602.19
2023-04-14T00:02:28.776Z,602.24
2023-04-14T00:02:38.839Z,602.19
2023-04-14T00:02:48.875Z,602.18
2023-04-14T00:02:58.849Z,602.25
2023-04-14T00:03:08.803Z,602.19
2023-04-14T00:03:18.915Z,602.23
2023-04-14T00:03:28.792Z,602.16
2023-04-14T00:03:38.810Z,602.12
2023-04-14T00:03:48.836Z,602.20
2023-04-14T00:03:58.788Z,602.15
2023-04-14T00:04:08.799Z,602.17
2023-04-14T00:04:18.753Z,602.12
2023-04-14T00:04:28.830Z,602.10
2023-04-14T00:04:38.752Z,602.12
2023-04-14T00:04:48.808Z,602.06
2023-04-14T00:04:58.727Z,602.13
2023-04-14T00:05:08.783Z,602.11
2023-04-14T00:05:18.743Z,602.07
2023-04-14T00:05:38.683Z,601.97
2023-04-14T00:05:48.695Z,602.04
2023-04-14T00:05:58.675Z,601.99
2023-04-14T00:06:08.681Z,602.03
2023-04-14T00:06:18.684Z,601.99
2023-04-14T00:06:28.677Z,601.98
2023-04-14T00:06:38.701Z,602.03
2023-04-14T00:06:58.727Z,602.02
2023-04-14T00:07:08.683Z,601.99
2023-04-14T00:07:18.680Z,601.94
2023-04-14T00:07:28.678Z,602.01
2023-04-14T00:07:38.702Z,601.94
2023-04-14T00:07:48.683Z,602.01
2023-04-14T00:07:58.685Z,601.96
2023-04-14T00:08:08.685Z,602.01
2023-04-14T00:08:18.705Z,602.01
2023-04-14T00:08:28.682Z,602.00
2023-04-14T00:08:38.695Z,602.05
2023-04-14T00:08:48.710Z,602.02
2023-04-14T00:08:58.920Z,602.06
2023-04-14T00:09:08.695Z,602.02
2023-04-14T00:09:18.694Z,602.04
2023-04-14T00:09:28.685Z,602.02
2023-04-14T00:09:38.688Z,602.08
2023-04-14T00:09:48.697Z,602.02
2023-04-14T00:09:58.689Z,602.05
2023-04-14T00:10:08.711Z,602.09
2023-04-14T00:10:18.698Z,602.03
2023-04-14T00:10:28.712Z,602.08
2023-04-14T00:10:38.697Z,602.06
2023-04-14T00:10:48.701Z,602.07
2023-04-14T00:10:58.709Z,602.07
2023-04-14T00:11:08.687Z,602.05
2023-04-14T00:11:18.704Z,601.99
2023-04-14T00:11:28.703Z,602.05
2023-04-14T00:11:38.709Z,602.01
2023-04-14T00:11:48.705Z,602.06
2023-04-14T00:11:58.710Z,602.01
2023-04-14T00:12:08.716Z,602.01
2023-04-14T00:12:18.710Z,601.98
2023-04-14T00:12:38.703Z,602.02
2023-04-14T00:12:48.704Z,601.98
2023-04-14T00:12:58.725Z,601.94
2023-04-14T00:13:08.704Z,602.01
2023-04-14T00:13:18.708Z,601.93
2023-04-14T00:13:28.726Z,601.95
2023-04-14T00:13:38.705Z,601.92
2023-04-14T00:13:48.704Z,601.90
2023-04-14T00:14:08.713Z,601.98
2023-04-14T00:14:18.733Z,601.89
2023-04-14T00:14:28.708Z,601.91
2023-04-14T00:14:38.728Z,601.88
2023-04-14T00:14:48.708Z,601.83
2023-04-14T00:14:58.709Z,601.86
2023-04-14T00:15:08.724Z,601.81
2023-04-14T00:15:28.730Z,601.82
2023-04-14T00:15:38.716Z,601.86
2023-04-14T00:15:48.711Z,601.81
2023-04-14T00:15:58.721Z,601.88
2023-04-14T00:16:08.726Z,601.84
2023-04-14T00:16:18.740Z,601.81
2023-04-14T00:16:28.730Z,601.82
2023-04-14T00:16:38.738Z,601.81
2023-04-14T00:16:48.732Z,601.77
2023-04-14T00:16:58.777Z,601.83
2023-04-14T00:17:08.796Z,601.79
2023-04-14T00:17:19.052Z,601.85
2023-04-14T00:17:28.747Z,601.77
2023-04-14T00:17:38.796Z,601.81
2023-04-14T00:17:48.748Z,601.77
2023-04-14T00:17:58.781Z,601.84
2023-04-14T00:18:08.790Z,601.78
2023-04-14T00:18:18.749Z,601.82
2023-04-14T00:18:28.760Z,601.77
2023-04-14T00:18:48.741Z,601.77
2023-04-14T00:18:58.987Z,601.76
2023-04-14T00:19:08.731Z,601.70
2023-04-14T00:19:18.745Z,601.78
2023-04-14T00:19:28.736Z,601.72
2023-04-14T00:19:38.750Z,601.77
2023-04-14T00:19:48.732Z,601.70
2023-04-14T00:19:58.737Z,601.77
2023-04-14T00:20:08.746Z,601.73
2023-04-14T00:20:18.739Z,601.72
2023-04-14T00:20:28.760Z,601.75
2023-04-14T00:20:38.739Z,601.77
2023-04-14T00:20:48.744Z,601.74
2023-04-14T00:20:58.741Z,601.75
2023-04-14T00:21:08.744Z,601.75
2023-04-14T00:21:28.744Z,601.76
2023-04-14T00:21:38.747Z,601.85
2023-04-14T00:21:48.759Z,601.79
2023-04-14T00:21:58.752Z,601.83
2023-04-14T00:22:08.741Z,601.85
2023-04-14T00:22:18.753Z,601.78
2023-04-14T00:22:28.754Z,601.87
2023-04-14T00:22:38.743Z,601.84
2023-04-14T00:22:48.754Z,601.85
2023-04-14T00:22:58.766Z,601.90
2023-04-14T00:23:08.764Z,601.90
2023-04-14T00:23:18.758Z,601.89
2023-04-14T00:23:28.755Z,601.94
2023-04-14T00:23:38.751Z,601.92
2023-04-14T00:23:48.752Z,601.97
2023-04-14T00:23:58.762Z,601.92
2023-04-14T00:24:18.761Z,601.95
2023-04-14T00:24:28.760Z,602.06
2023-04-14T00:24:38.763Z,602.04
2023-04-14T00:24:48.751Z,602.11
2023-04-14T00:24:58.757Z,602.11
2023-04-14T00:25:08.782Z,602.10
2023-04-14T00:25:28.761Z,602.16
2023-04-14T00:25:38.768Z,602.20
2023-04-14T00:25:48.761Z,602.21
2023-04-14T00:25:58.763Z,602.15
2023-04-14T00:26:08.770Z,602.24
2023-04-14T00:26:18.766Z,602.21
2023-04-14T00:26:38.779Z,602.24
2023-04-14T00:26:48.767Z,602.31
2023-04-14T00:26:58.775Z,602.28
2023-04-14T00:27:08.774Z,602.33
2023-04-14T00:27:18.775Z,602.30
2023-04-14T00:27:28.771Z,602.35
2023-04-14T00:27:38.778Z,602.40
2023-04-14T00:27:48.776Z,602.40
2023-04-14T00:27:58.776Z,602.39
2023-04-14T00:28:08.775Z,602.34
2023-04-14T00:28:28.774Z,602.37
2023-04-14T00:28:38.778Z,602.46
2023-04-14T00:28:48.768Z,602.41
2023-04-14T00:28:58.965Z,602.46
2023-04-14T00:29:08.775Z,602.45
2023-04-14T00:29:18.805Z,602.47
2023-04-14T00:29:28.786Z,602.48
2023-04-14T00:29:38.780Z,602.43
2023-04-14T00:29:48.778Z,602.47
2023-04-14T00:29:58.784Z,602.45
2023-04-14T00:30:08.783Z,602.49
2023-04-14T00:30:18.801Z,602.45
2023-04-14T00:30:28.782Z,602.50
2023-04-14T00:30:38.805Z,602.47
2023-04-14T00:30:58.841Z,602.49
2023-04-14T00:31:08.819Z,602.52
2023-04-14T00:31:18.821Z,602.51
2023-04-14T00:31:28.811Z,602.48
2023-04-14T00:31:38.841Z,602.50
2023-04-14T00:31:48.789Z,602.45
2023-04-14T00:31:58.797Z,602.52
2023-04-14T00:32:08.797Z,602.53
2023-04-14T00:32:18.800Z,602.53
2023-04-14T00:32:28.831Z,602.49
2023-04-14T00:32:48.888Z,602.52
2023-04-14T00:32:58.879Z,602.58
2023-04-14T00:33:08.782Z,602.52
2023-04-14T00:33:18.814Z,602.54
2023-04-14T00:33:28.797Z,602.51
2023-04-14T00:33:38.792Z,602.53
2023-04-14T00:33:48.795Z,602.49
2023-04-14T00:33:58.798Z,602.55
2023-04-14T00:34:08.827Z,602.52
2023-04-14T00:34:18.841Z,602.48
2023-04-14T00:34:28.805Z,602.46
2023-04-14T00:34:38.794Z,602.53
2023-04-14T00:34:58.803Z,602.53
2023-04-14T00:35:08.808Z,602.50
2023-04-14T00:35:18.812Z,602.47
2023-04-14T00:35:28.825Z,602.51
2023-04-14T00:35:38.811Z,602.44
2023-04-14T00:35:48.823Z,602.50
2023-04-14T00:35:58.802Z,602.48
2023-04-14T00:36:08.811Z,602.53
2023-04-14T00:36:18.806Z,602.49
2023-04-14T00:36:28.810Z,602.54
2023-04-14T00:36:38.811Z,602.53
2023-04-14T00:36:48.835Z,602.55
2023-04-14T00:36:58.813Z,602.57
2023-04-14T00:37:08.815Z,602.61
2023-04-14T00:37:18.817Z,602.63
2023-04-14T00:37:38.823Z,602.70
2023-04-14T00:37:48.830Z,602.65
2023-04-14T00:37:58.812Z,602.72
2023-04-14T00:38:08.828Z,602.66
2023-04-14T00:38:18.826Z,602.73
2023-04-14T00:38:28.821Z,602.72
2023-04-14T00:38:48.828Z,602.74
2023-04-14T00:38:59.071Z,602.75
2023-04-14T00:39:08.821Z,602.76
2023-04-14T00:39:18.837Z,602.76
2023-04-14T00:39:28.821Z,602.71
2023-04-14T00:39:38.821Z,602.77
2023-04-14T00:39:48.814Z,602.72
2023-04-14T00:39:58.825Z,602.76
2023-04-14T00:40:08.830Z,602.73
2023-04-14T00:40:28.830Z,602.66
2023-04-14T00:40:38.834Z,602.65
2023-04-14T00:40:48.825Z,602.62
2023-04-14T00:40:58.840Z,602.59
2023-04-14T00:41:08.831Z,602.60
2023-04-14T00:41:18.865Z,602.60
2023-04-14T00:41:28.832Z,602.52
2023-04-14T00:41:48.828Z,602.50
2023-04-14T00:41:58.833Z,602.46
2023-04-14T00:42:08.833Z,602.49
2023-04-14T00:42:18.850Z,602.47
2023-04-14T00:42:28.839Z,602.42
2023-04-14T00:42:38.836Z,602.44
2023-04-14T00:42:48.836Z,602.38
2023-04-14T00:42:58.877Z,602.31
2023-04-14T00:43:08.853Z,602.35
2023-04-14T00:43:18.848Z,602.31
2023-04-14T00:43:38.851Z,602.25
2023-04-14T00:43:48.835Z,602.31
2023-04-14T00:43:58.835Z,602.25
2023-04-14T00:44:08.845Z,602.25
2023-04-14T00:44:18.856Z,602.21
2023-04-14T00:44:28.850Z,602.27
2023-04-14T00:44:48.842Z,602.26
2023-04-14T00:44:58.852Z,602.21
2023-04-14T00:45:08.883Z,602.17
2023-04-14T00:45:18.858Z,602.26
2023-04-14T00:45:28.848Z,602.24
2023-04-14T00:45:38.850Z,602.25
2023-04-14T00:45:48.875Z,602.27
2023-04-14T00:45:58.946Z,602.20
2023-04-14T00:46:18.917Z,602.22
2023-04-14T00:46:28.983Z,602.26
2023-04-14T00:46:38.859Z,602.27
2023-04-14T00:46:48.883Z,602.24
2023-04-14T00:46:58.862Z,602.29
2023-04-14T00:47:08.884Z,602.26
2023-04-14T00:47:18.906Z,602.30
2023-04-14T00:47:28.887Z,602.28
2023-04-14T00:47:38.903Z,602.33
2023-04-14T00:47:48.914Z,602.29
2023-04-14T00:48:08.875Z,602.33
2023-04-14T00:48:18.867Z,602.37
2023-04-14T00:48:28.857Z,602.30
2023-04-14T00:48:38.865Z,602.34
2023-04-14T00:48:48.860Z,602.31
2023-04-14T00:48:59.257Z,602.24
2023-04-14T00:49:08.863Z,602.28
2023-04-14T00:49:18.877Z,602.23
2023-04-14T00:49:28.863Z,602.27
2023-04-14T00:49:38.868Z,602.22
2023-04-14T00:49:48.861Z,602.25
2023-04-14T00:49:58.870Z,602.21
2023-04-14T00:50:08.894Z,602.27
2023-04-14T00:50:28.872Z,602.22
2023-04-14T00:50:38.877Z,602.19
2023-04-14T00:50:48.870Z,602.18
2023-04-14T00:50:58.879Z,602.10
2023-04-14T00:51:08.871Z,602.16
2023-04-14T00:51:18.896Z,602.08
2023-04-14T00:51:28.876Z,602.12
2023-04-14T00:51:38.883Z,602.07
2023-04-14T00:51:48.909Z,602.12
2023-04-14T00:51:58.878Z,602.08
2023-04-14T00:52:08.879Z,602.12
2023-04-14T00:52:18.874Z,602.06
2023-04-14T00:52:28.875Z,602.11
2023-04-14T00:52:38.880Z,602.05
2023-04-14T00:52:58.898Z,602.05
2023-04-14T00:53:08.898Z,601.97
2023-04-14T00:53:18.887Z,602.05
2023-04-14T00:53:28.878Z,602.01
2023-04-14T00:53:38.872Z,602.01
2023-04-14T00:53:48.882Z,602.02
2023-04-14T00:54:08.892Z,602.03
2023-04-14T00:54:18.922Z,602.02
2023-04-14T00:54:28.907Z,601.97
2023-04-14T00:54:38.886Z,602.06
2023-04-14T00:54:48.883Z,602.03
2023-04-14T00:54:58.897Z,602.11
2023-04-14T00:55:08.899Z,602.06
2023-04-14T00:55:28.886Z,602.13
2023-04-14T00:55:38.902Z,602.11
2023-04-14T00:55:48.890Z,602.16
2023-04-14T00:55:58.894Z,602.15
2023-04-14T00:56:08.897Z,602.20
2023-04-14T00:56:18.891Z,602.16
2023-04-14T00:56:28.898Z,602.21
2023-04-14T00:56:38.894Z,602.17
2023-04-14T00:56:48.884Z,602.22
2023-04-14T00:56:58.915Z,602.23
2023-04-14T00:57:08.892Z,602.20
2023-04-14T00:57:18.904Z,602.25
2023-04-14T00:57:38.922Z,602.30
2023-04-14T00:57:48.899Z,602.22
2023-04-14T00:57:58.902Z,602.30
2023-04-14T00:58:08.903Z,602.26
2023-04-14T00:58:18.894Z,602.22
2023-04-14T00:58:28.925Z,602.27
2023-04-14T00:58:48.905Z,602.21
2023-04-14T00:58:59.198Z,602.25
2023-04-14T00:59:08.906Z,602.22
2023-04-14T00:59:18.891Z,602.22
2023-04-14T00:59:28.902Z,602.20
2023-04-14T00:59:38.908Z,602.25
2023-04-14T00:59:48.912Z,602.20
2023-04-14T00:59:58.889Z,602.25
2023-04-14T01:00:08.925Z,602.22
2023-04-14T01:00:28.913Z,602.20
2023-04-14T01:00:38.907Z,602.14
2023-04-14T01:00:48.908Z,602.21
2023-04-14T01:00:58.932Z,602.13
2023-04-14T01:01:08.917Z,602.17
2023-04-14T01:01:18.991Z,602.15
2023-04-14T01:01:38.932Z,602.17
2023-04-14T01:01:49.006Z,602.17
2023-04-14T01:01:59.016Z,602.13
2023-04-14T01:02:09.146Z,602.15
2023-04-14T01:02:19.035Z,602.11
2023-04-14T01:02:29.079Z,602.18
2023-04-14T01:02:39.140Z,602.08
2023-04-14T01:02:49.150Z,602.10
2023-04-14T01:02:59.054Z,602.09
2023-04-14T01:03:09.179Z,602.16
2023-04-14T01:03:29.081Z,602.06
2023-04-14T01:03:39.064Z,602.11
2023-04-14T01:03:49.034Z,602.08
2023-04-14T01:03:59.045Z,602.11
2023-04-14T01:04:09.098Z,602.04
2023-04-14T01:04:19.058Z,602.10
2023-04-14T01:04:40.510Z,602.03
2023-04-14T01:04:52.885Z,602.01
2023-04-14T01:04:54.344Z,602.08
2023-04-14T01:05:00.046Z,602.02
2023-04-14T01:05:09.000Z,602.05
2023-04-14T01:05:18.932Z,602.12
2023-04-14T01:05:28.953Z,602.05
2023-04-14T01:05:48.932Z,602.10
2023-04-14T01:05:58.927Z,602.07
2023-04-14T01:06:08.930Z,602.02
2023-04-14T01:06:18.938Z,602.07
2023-04-14T01:06:28.932Z,602.03
2023-04-14T01:06:38.939Z,602.09
2023-04-14T01:06:48.937Z,602.03
2023-04-14T01:06:58.938Z,602.06
2023-04-14T01:07:08.955Z,601.99
2023-04-14T01:07:18.934Z,602.07
2023-04-14T01:07:28.949Z,602.01
2023-04-14T01:07:38.943Z,602.01
2023-04-14T01:07:48.936Z,601.99
2023-04-14T01:07:58.951Z,601.98
2023-04-14T01:08:08.944Z,601.92
2023-04-14T01:08:18.953Z,601.96
2023-04-14T01:08:28.964Z,601.89
2023-04-14T01:08:38.952Z,601.93
2023-04-14T01:08:48.945Z,601.88
2023-04-14T01:08:59.172Z,601.92
2023-04-14T01:09:08.947Z,601.85
2023-04-14T01:09:18.954Z,601.84
2023-04-14T01:09:28.948Z,601.86
2023-04-14T01:09:38.956Z,601.77
2023-04-14T01:09:48.951Z,601.80
2023-04-14T01:09:58.947Z,601.72
2023-04-14T01:10:08.946Z,601.76
2023-04-14T01:10:18.954Z,601.72
2023-04-14T01:10:28.949Z,601.66
2023-04-14T01:10:48.951Z,601.64
2023-04-14T01:10:58.945Z,601.62
2023-04-14T01:11:08.965Z,601.63
2023-04-14T01:11:18.950Z,601.64
2023-04-14T01:11:28.949Z,601.65
2023-04-14T01:11:38.952Z,601.57
2023-04-14T01:11:48.951Z,601.63
2023-04-14T01:11:58.953Z,601.54
2023-04-14T01:12:08.950Z,601.50
2023-04-14T01:12:18.974Z,601.54
2023-04-14T01:12:28.960Z,601.46
2023-04-14T01:12:38.956Z,601.49
2023-04-14T01:12:48.960Z,601.42
2023-04-14T01:12:58.961Z,601.47
2023-04-14T01:13:08.959Z,601.41
2023-04-14T01:13:18.976Z,601.31
2023-04-14T01:13:28.967Z,601.33
2023-04-14T01:13:38.965Z,601.25
2023-04-14T01:13:58.959Z,601.24
2023-04-14T01:14:08.959Z,601.28
2023-04-14T01:14:18.971Z,601.21
2023-04-14T01:14:28.970Z,601.26
2023-04-14T01:14:38.971Z,601.19
2023-04-14T01:14:48.980Z,601.18
2023-04-14T01:15:08.966Z,601.14
2023-04-14T01:15:18.967Z,601.18
2023-04-14T01:15:28.963Z,601.09
2023-04-14T01:15:39.063Z,601.16
2023-04-14T01:15:49.051Z,601.07
2023-04-14T01:15:58.976Z,601.09
2023-04-14T01:16:09.026Z,601.08
2023-04-14T01:16:19.009Z,601.12
2023-04-14T01:16:29.061Z,601.09
2023-04-14T01:16:39.055Z,601.13
2023-04-14T01:16:48.968Z,601.09
2023-04-14T01:16:58.983Z,601.09
2023-04-14T01:17:08.957Z,601.09
2023-04-14T01:17:19.032Z,601.01
2023-04-14T01:17:39.017Z,601.01
2023-04-14T01:17:48.991Z,601.06
2023-04-14T01:17:58.994Z,601.00
2023-04-14T01:18:08.998Z,601.04
2023-04-14T01:18:18.993Z,601.01
2023-04-14T01:18:28.978Z,601.07
2023-04-14T01:18:38.964Z,601.01
2023-04-14T01:18:48.992Z,601.05
2023-04-14T01:18:59.182Z,601.00
2023-04-14T01:19:08.978Z,600.94
2023-04-14T01:19:18.982Z,600.95
2023-04-14T01:19:29.027Z,600.95
2023-04-14T01:19:38.984Z,601.01
2023-04-14T01:19:48.977Z,600.96
2023-04-14T01:19:58.988Z,600.99
2023-04-14T01:20:08.984Z,600.92
2023-04-14T01:20:18.980Z,601.00
2023-04-14T01:20:38.991Z,600.95
2023-04-14T01:20:49.020Z,600.96
2023-04-14T01:20:58.990Z,600.91
2023-04-14T01:21:08.988Z,600.98
2023-04-14T01:21:19.000Z,600.90
2023-04-14T01:21:28.990Z,600.94
2023-04-14T01:21:39.001Z,600.90
2023-04-14T01:21:48.988Z,600.87
2023-04-14T01:21:58.989Z,600.93
2023-04-14T01:22:08.997Z,600.91
2023-04-14T01:22:19.016Z,600.92
2023-04-14T01:22:28.996Z,600.90
2023-04-14T01:22:38.988Z,600.94
2023-04-14T01:22:48.994Z,600.93
2023-04-14T01:22:59.018Z,600.90
2023-04-14T01:23:19.006Z,600.88
2023-04-14T01:23:29.014Z,600.83
2023-04-14T01:23:39.004Z,600.88
2023-04-14T01:23:48.996Z,600.84
2023-04-14T01:23:58.983Z,600.84
2023-04-14T01:24:09.012Z,600.82
2023-04-14T01:24:18.998Z,600.84
2023-04-14T01:24:29.035Z,600.81
2023-04-14T01:24:39.004Z,600.82
2023-04-14T01:24:49.012Z,600.82
2023-04-14T01:24:59.011Z,600.76
2023-04-14T01:25:09.028Z,600.79
2023-04-14T01:25:19.029Z,600.73
2023-04-14T01:25:39.008Z,600.72
2023-04-14T01:25:49.010Z,600.78
2023-04-14T01:25:59.034Z,600.69
2023-04-14T01:26:09.016Z,600.76
2023-04-14T01:26:19.040Z,600.72
2023-04-14T01:26:29.033Z,600.74
2023-04-14T01:26:39.018Z,600.73
2023-04-14T01:26:49.013Z,600.69
2023-04-14T01:26:59.009Z,600.73
2023-04-14T01:27:19.023Z,600.71
2023-04-14T01:27:29.018Z,600.72
2023-04-14T01:27:39.015Z,600.78
2023-04-14T01:27:49.042Z,600.73
2023-04-14T01:27:59.027Z,600.73
2023-04-14T01:28:09.025Z,600.72
2023-04-14T01:28:19.036Z,600.76
2023-04-14T01:28:29.101Z,600.76
2023-04-14T01:28:39.038Z,600.80
2023-04-14T01:28:49.038Z,600.81
2023-04-14T01:29:09.032Z,600.84
2023-04-14T01:29:19.030Z,600.87
2023-04-14T01:29:29.021Z,600.87
2023-04-14T01:29:39.041Z,600.87
2023-04-14T01:29:49.028Z,600.83
2023-04-14T01:29:59.031Z,600.87
2023-04-14T01:30:09.032Z,600.87
2023-04-14T01:30:19.046Z,600.90
2023-04-14T01:30:29.031Z,600.88
2023-04-14T01:30:49.042Z,600.90
2023-04-14T01:30:59.076Z,600.82
2023-04-14T01:31:09.077Z,600.86
2023-04-14T01:31:19.053Z,600.80
2023-04-14T01:31:29.042Z,600.87
2023-04-14T01:31:39.179Z,600.81
2023-04-14T01:31:49.108Z,600.86
2023-04-14T01:31:59.111Z,600.82
2023-04-14T01:32:09.040Z,600.86
2023-04-14T01:32:19.042Z,600.80
2023-04-14T01:32:29.069Z,600.77
2023-04-14T01:32:39.133Z,600.82
2023-04-14T01:32:49.070Z,600.79
2023-04-14T01:32:59.074Z,600.79
2023-04-14T01:33:09.042Z,600.77
2023-04-14T01:33:19.065Z,600.83
2023-04-14T01:33:29.043Z,600.78
2023-04-14T01:33:39.061Z,600.83
2023-04-14T01:33:49.035Z,600.83
2023-04-14T01:33:59.053Z,600.78
2023-04-14T01:34:09.057Z,600.76
2023-04-14T01:34:19.033Z,600.82
2023-04-14T01:34:29.065Z,600.78
2023-04-14T01:34:49.065Z,600.81
2023-04-14T01:34:59.053Z,600.85
2023-04-14T01:35:09.061Z,600.82
2023-04-14T01:35:19.085Z,600.87
2023-04-14T01:35:29.051Z,600.85
2023-04-14T01:35:39.052Z,600.86
2023-04-14T01:35:49.058Z,600.88
2023-04-14T01:35:59.080Z,600.91
2023-04-14T01:36:09.087Z,600.85
2023-04-14T01:36:29.054Z,600.86
2023-04-14T01:36:39.078Z,600.91
2023-04-14T01:36:49.056Z,600.94
2023-04-14T01:36:59.056Z,600.92
2023-04-14T01:37:09.067Z,600.97
2023-04-14T01:37:19.070Z,600.92
2023-04-14T01:37:29.061Z,600.98
2023-04-14T01:37:39.078Z,600.96
2023-04-14T01:37:49.059Z,600.91
2023-04-14T01:37:59.061Z,600.91
2023-04-14T01:38:09.054Z,600.91
2023-04-14T01:38:19.063Z,600.91
2023-04-14T01:38:29.069Z,600.96
2023-04-14T01:38:39.071Z,600.91
2023-04-14T01:38:49.071Z,600.95
2023-04-14T01:38:59.299Z,600.91
2023-04-14T01:39:09.093Z,600.92
2023-04-14T01:39:29.087Z,600.97
2023-04-14T01:39:39.086Z,600.94
2023-04-14T01:39:49.074Z,600.97
2023-04-14T01:39:59.074Z,600.99
2023-04-14T01:40:09.080Z,600.94
2023-04-14T01:40:19.085Z,601.02
2023-04-14T01:40:39.085Z,601.02
2023-04-14T01:40:49.084Z,601.01
2023-04-14T01:40:59.076Z,600.93
2023-04-14T01:41:09.077Z,600.98
2023-04-14T01:41:19.078Z,600.93
2023-04-14T01:41:29.074Z,600.97
2023-04-14T01:41:39.091Z,600.98
2023-04-14T01:41:49.083Z,600.89
2023-04-14T01:41:59.087Z,600.82
2023-04-14T01:42:09.084Z,600.88
2023-04-14T01:42:19.090Z,600.79
2023-04-14T01:42:29.091Z,600.82
2023-04-14T01:42:49.082Z,600.75
2023-04-14T01:42:59.090Z,600.71
2023-04-14T01:43:09.100Z,600.71
2023-04-14T01:43:19.087Z,600.65
2023-04-14T01:43:29.096Z,600.68
2023-04-14T01:43:39.085Z,600.63
2023-04-14T01:43:49.090Z,600.59
2023-04-14T01:43:59.089Z,600.65
2023-04-14T01:44:19.105Z,600.66
2023-04-14T01:44:29.110Z,600.54
2023-04-14T01:44:39.099Z,600.61
2023-04-14T01:44:49.094Z,600.57
2023-04-14T01:44:59.103Z,600.54
2023-04-14T01:45:09.085Z,600.57
2023-04-14T01:45:19.131Z,600.53
2023-04-14T01:45:39.141Z,600.51
2023-04-14T01:45:49.135Z,600.46
2023-04-14T01:45:59.131Z,600.54
2023-04-14T01:46:09.134Z,600.47
2023-04-14T01:46:19.172Z,600.55
2023-04-14T01:46:29.111Z,600.48
2023-04-14T01:46:39.109Z,600.50
2023-04-14T01:46:49.110Z,600.49
2023-04-14T01:46:59.113Z,600.57
2023-04-14T01:47:09.113Z,600.51
2023-04-14T01:47:19.134Z,600.56
2023-04-14T01:47:29.147Z,600.57
2023-04-14T01:47:39.128Z,600.57
2023-04-14T01:47:49.191Z,600.51
2023-04-14T01:47:59.147Z,600.58
2023-04-14T01:48:09.192Z,600.57
2023-04-14T01:48:19.121Z,600.62
2023-04-14T01:48:29.116Z,600.59
2023-04-14T01:48:39.116Z,600.59
2023-04-14T01:48:49.132Z,600.59
2023-04-14T01:48:59.313Z,600.61
2023-04-14T01:49:09.156Z,600.66
2023-04-14T01:49:19.169Z,600.66
2023-04-14T01:49:29.171Z,600.71
2023-04-14T01:49:39.140Z,600.69
2023-04-14T01:49:49.314Z,600.67
2023-04-14T01:49:59.125Z,600.74
2023-04-14T01:50:19.123Z,600.73
2023-04-14T01:50:29.117Z,600.68
2023-04-14T01:50:39.120Z,600.75
2023-04-14T01:50:49.153Z,600.71
2023-04-14T01:50:59.157Z,600.76
2023-04-14T01:51:09.124Z,600.72
2023-04-14T01:51:19.124Z,600.75
2023-04-14T01:51:29.139Z,600.69
2023-04-14T01:51:39.130Z,600.76
2023-04-14T01:51:59.131Z,600.78
2023-04-14T01:52:09.140Z,600.79
2023-04-14T01:52:19.137Z,600.75
2023-04-14T01:52:29.134Z,600.76
2023-04-14T01:52:39.131Z,600.81
2023-04-14T01:52:49.165Z,600.77
2023-04-14T01:52:59.139Z,600.73
2023-04-14T01:53:09.142Z,600.75
2023-04-14T01:53:19.142Z,600.77
2023-04-14T01:53:29.144Z,600.72
2023-04-14T01:53:39.148Z,600.78
2023-04-14T01:53:59.135Z,600.73
2023-04-14T01:54:09.163Z,600.69
2023-04-14T01:54:19.159Z,600.71
2023-04-14T01:54:29.180Z,600.68
2023-04-14T01:54:39.147Z,600.66
2023-04-14T01:54:49.160Z,600.71
2023-04-14T01:54:59.153Z,600.65
2023-04-14T01:55:09.151Z,600.67
2023-04-14T01:55:19.170Z,600.63
2023-04-14T01:55:39.161Z,600.61
2023-04-14T01:55:49.143Z,600.56
2023-04-14T01:55:59.156Z,600.57
2023-04-14T01:56:09.159Z,600.57
2023-04-14T01:56:19.161Z,600.60
2023-04-14T01:56:29.150Z,600.55
2023-04-14T01:56:39.148Z,600.57
2023-04-14T01:56:49.170Z,600.58
2023-04-14T01:56:59.153Z,600.53
2023-04-14T01:57:09.165Z,600.55
2023-04-14T01:57:19.160Z,600.55
2023-04-14T01:57:29.157Z,600.47
2023-04-14T01:57:39.187Z,600.48
2023-04-14T01:57:49.161Z,600.46
2023-04-14T01:57:59.157Z,600.53
2023-04-14T01:58:19.215Z,600.53
2023-04-14T01:58:29.157Z,600.48
2023-04-14T01:58:39.156Z,600.50
2023-04-14T01:58:49.161Z,600.47
2023-04-14T01:58:59.391Z,600.49
2023-04-14T01:59:09.180Z,600.46
2023-04-14T01:59:29.162Z,600.41
2023-04-14T01:59:39.168Z,600.36
2023-04-14T01:59:49.171Z,600.39
2023-04-14T01:59:59.165Z,600.31
2023-04-14T02:00:09.177Z,600.33
2023-04-14T02:00:19.174Z,600.27
2023-04-14T02:00:29.169Z,600.32
2023-04-14T02:00:39.211Z,600.25
2023-04-14T02:00:49.202Z,600.28
2023-04-14T02:00:59.230Z,600.23
2023-04-14T02:01:09.241Z,600.15
2023-04-14T02:01:19.250Z,600.22
2023-04-14T02:01:29.287Z,600.13
2023-04-14T02:01:39.183Z,600.19
2023-04-14T02:01:49.252Z,600.14
2023-04-14T02:02:09.220Z,600.09
2023-04-14T02:02:19.256Z,600.11
2023-04-14T02:02:29.327Z,600.07
2023-04-14T02:02:39.341Z,600.11
2023-04-14T02:02:49.289Z,600.05
2023-04-14T02:02:59.393Z,600.08
2023-04-14T02:03:09.237Z,599.98
2023-04-14T02:03:19.322Z,600.00
2023-04-14T02:03:29.294Z,600.04
2023-04-14T02:03:39.289Z,599.97
2023-04-14T02:03:49.402Z,600.02
2023-04-14T02:03:59.282Z,599.97
2023-04-14T02:04:09.207Z,600.01
2023-04-14T02:04:19.255Z,600.00
2023-04-14T02:04:29.184Z,600.02
2023-04-14T02:04:39.209Z,600.01
2023-04-14T02:04:59.193Z,600.02
2023-04-14T02:05:09.186Z,600.03
2023-04-14T02:05:19.176Z,600.02
2023-04-14T02:05:29.191Z,599.95
2023-04-14T02:05:39.211Z,600.02
2023-04-14T02:05:49.194Z,599.97
2023-04-14T02:05:59.193Z,600.03
2023-04-14T02:06:09.200Z,599.99
2023-04-14T02:06:19.209Z,600.04
2023-04-14T02:06:29.197Z,600.00
2023-04-14T02:06:39.234Z,600.06
2023-04-14T02:06:49.197Z,600.07
2023-04-14T02:06:59.204Z,599.99
2023-04-14T02:07:09.204Z,600.05
2023-04-14T02:07:19.217Z,600.02
2023-04-14T02:07:29.205Z,600.05
2023-04-14T02:07:49.230Z,600.00
2023-04-14T02:07:59.211Z,600.00
2023-04-14T02:08:09.216Z,599.99
2023-04-14T02:08:19.204Z,600.01
2023-04-14T02:08:29.201Z,600.02
2023-04-14T02:08:39.205Z,600.04
2023-04-14T02:08:59.367Z,600.01
2023-04-14T02:09:09.210Z,599.97
2023-04-14T02:09:19.202Z,600.05
2023-04-14T02:09:29.242Z,599.98
2023-04-14T02:09:39.229Z,600.01
2023-04-14T02:09:49.217Z,599.96
2023-04-14T02:09:59.214Z,599.99
2023-04-14T02:10:09.208Z,599.94
2023-04-14T02:10:19.225Z,600.03
2023-04-14T02:10:29.235Z,599.98
2023-04-14T02:10:49.209Z,600.03
2023-04-14T02:10:59.214Z,599.96
2023-04-14T02:11:09.224Z,600.03
2023-04-14T02:11:19.217Z,600.02
2023-04-14T02:11:29.224Z,600.03
2023-04-14T02:11:39.226Z,600.04
2023-04-14T02:11:49.241Z,600.08
2023-04-14T02:11:59.217Z,600.05
2023-04-14T02:12:09.239Z,600.10
2023-04-14T02:12:19.221Z,600.06
2023-04-14T02:12:29.248Z,600.13
2023-04-14T02:12:39.224Z,600.12
2023-04-14T02:12:59.239Z,600.15
2023-04-14T02:13:09.228Z,600.08
2023-04-14T02:13:19.235Z,600.09
2023-04-14T02:13:29.240Z,600.16
2023-04-14T02:13:39.222Z,600.12
2023-04-14T02:13:49.223Z,600.17
2023-04-14T02:13:59.236Z,600.13
2023-04-14T02:14:09.229Z,600.17
2023-04-14T02:14:19.221Z,600.14
2023-04-14T02:14:39.238Z,600.13
2023-04-14T02:14:49.225Z,600.20
2023-04-14T02:14:59.226Z,600.13
2023-04-14T02:15:09.236Z,600.19
2023-04-14T02:15:19.224Z,600.15